Time;durP1;ratioP1;P1;durP2;ratioP2;P2;SDS_P1;SDS_P2;PMS_P1;PMS_P2;Temp;Humidity;BMP_temperature;BMP_pressure;BME280_temperature;BME280_humidity;BME280_pressure;Samples;Min_cycle;Max_cycle;Signal;HPM_P1;HPM_P2
2023/03/07 00:00:16;;;;;;;9.93;4.88;;;0.40;91.80;;;;;;2077220;28;20611;-69
2023/03/07 00:01:30;;;;;;;12.70;4.88;;;0.40;91.90;;;;;;2078352;28;20194;-70
2023/03/07 00:02:33;;;;;;;10.70;5.32;;;0.40;92.00;;;;;;2074243;28;20185;-70
2023/03/07 00:03:38;;;;;;;9.82;4.93;;;0.30;92.10;;;;;;2068191;28;20216;-69
2023/03/07 00:04:45;;;;;;;10.70;5.18;;;0.40;91.80;;;;;;2068721;28;20221;-69
2023/03/07 00:06:04;;;;;;;10.10;5.40;;;0.40;92.00;;;;;;2081584;28;20239;-69
2023/03/07 00:07:04;;;;;;;9.23;5.45;;;0.50;92.00;;;;;;2076782;28;20185;-69
2023/03/07 00:08:11;;;;;;;9.60;5.35;;;0.40;92.30;;;;;;2077434;28;20189;-69
2023/03/07 00:09:16;;;;;;;9.45;4.82;;;0.40;92.30;;;;;;2073558;28;20216;-68
2023/03/07 00:10:22;;;;;;;10.30;5.65;;;0.40;92.50;;;;;;2069879;28;20212;-69
2023/03/07 00:11:28;;;;;;;7.80;5.05;;;0.40;92.40;;;;;;2068951;28;20213;-70
2023/03/07 00:12:34;;;;;;;8.60;5.10;;;0.40;92.40;;;;;;2077272;28;20197;-70
2023/03/07 00:13:40;;;;;;;10.77;6.05;;;0.40;92.30;;;;;;2085311;28;20196;-70
2023/03/07 00:14:45;;;;;;;9.32;4.72;;;0.40;92.40;;;;;;2085008;28;20599;-69
2023/03/07 00:15:51;;;;;;;10.55;5.47;;;0.40;92.30;;;;;;2089642;28;20200;-70
2023/03/07 00:16:57;;;;;;;9.75;5.28;;;0.40;92.30;;;;;;2077303;28;20236;-69
2023/03/07 00:18:02;;;;;;;9.25;5.00;;;0.40;91.90;;;;;;2078529;28;20578;-69
2023/03/07 00:19:06;;;;;;;11.15;5.35;;;0.40;91.80;;;;;;2085420;28;20185;-70
2023/03/07 00:20:10;;;;;;;12.52;5.45;;;0.40;92.10;;;;;;2077032;28;20267;-69
2023/03/07 00:21:20;;;;;;;11.68;6.00;;;0.30;92.10;;;;;;2069501;28;20190;-70
2023/03/07 00:22:25;;;;;;;9.00;5.10;;;0.30;92.60;;;;;;2069915;28;20198;-70
2023/03/07 00:23:33;;;;;;;13.43;5.80;;;0.30;92.60;;;;;;2078464;28;20189;-71
2023/03/07 00:24:39;;;;;;;10.68;5.68;;;0.30;92.70;;;;;;2077019;28;20618;-70
2023/03/07 00:25:44;;;;;;;8.63;4.80;;;0.20;92.70;;;;;;2066567;28;20236;-70
2023/03/07 00:26:50;;;;;;;11.18;5.35;;;0.20;92.60;;;;;;2069501;28;20252;-68
2023/03/07 00:27:56;;;;;;;9.80;5.43;;;0.20;92.50;;;;;;2077398;28;20181;-70
2023/03/07 00:29:01;;;;;;;10.10;5.38;;;0.10;92.80;;;;;;2077443;28;20654;-69
2023/03/07 00:30:05;;;;;;;16.00;6.28;;;0.10;93.10;;;;;;2077072;28;20674;-70
2023/03/07 00:31:10;;;;;;;8.80;4.75;;;0.10;93.30;;;;;;2068746;28;20208;-70
2023/03/07 00:32:17;;;;;;;10.68;5.15;;;0.10;93.40;;;;;;2061378;28;20580;-69
2023/03/07 00:33:22;;;;;;;10.25;5.55;;;0.00;93.20;;;;;;2069206;28;20178;-69
2023/03/07 00:34:28;;;;;;;11.43;5.70;;;0.00;93.50;;;;;;2074714;28;20183;-69
2023/03/07 00:35:34;;;;;;;10.13;5.55;;;0.00;93.50;;;;;;2085605;28;20726;-70
2023/03/07 00:36:39;;;;;;;10.23;5.03;;;0.10;93.40;;;;;;2068563;28;20185;-70
2023/03/07 00:37:45;;;;;;;10.48;6.00;;;0.00;93.20;;;;;;2071531;28;20190;-69
2023/03/07 00:38:52;;;;;;;10.27;6.18;;;0.00;93.20;;;;;;2082019;28;20811;-70
2023/03/07 00:39:58;;;;;;;9.80;5.32;;;0.00;93.40;;;;;;2068658;28;20664;-72
2023/03/07 00:41:11;;;;;;;9.65;5.45;;;0.00;93.60;;;;;;2069379;28;20276;-70
2023/03/07 00:42:17;;;;;;;10.98;5.55;;;-0.10;93.90;;;;;;2082212;28;20189;-69
2023/03/07 00:43:23;;;;;;;11.32;5.45;;;0.00;93.80;;;;;;2068723;28;20273;-70
2023/03/07 00:44:29;;;;;;;9.98;5.72;;;0.00;93.70;;;;;;2062088;28;20552;-70
2023/03/07 00:45:34;;;;;;;11.23;5.35;;;0.00;93.80;;;;;;2070090;28;20245;-71
2023/03/07 00:46:40;;;;;;;10.52;5.45;;;0.00;93.60;;;;;;2078189;28;20209;-71
2023/03/07 00:47:46;;;;;;;11.75;6.07;;;0.10;93.60;;;;;;2077952;28;20581;-71
2023/03/07 00:48:52;;;;;;;10.35;6.15;;;0.10;93.40;;;;;;2085642;28;20183;-71
2023/03/07 00:49:57;;;;;;;9.13;5.28;;;0.10;94.10;;;;;;2076692;28;20780;-70
2023/03/07 00:51:05;;;;;;;12.02;6.20;;;0.10;93.70;;;;;;2061175;28;20190;-71
2023/03/07 00:52:09;;;;;;;10.45;5.78;;;0.10;93.70;;;;;;2068491;28;20186;-71
2023/03/07 00:53:15;;;;;;;10.70;5.60;;;0.10;93.70;;;;;;2065636;28;20261;-71
2023/03/07 00:54:21;;;;;;;13.13;6.32;;;0.10;93.20;;;;;;2074309;28;20188;-70
2023/03/07 00:55:27;;;;;;;13.82;6.30;;;0.10;93.40;;;;;;2076485;28;20191;-70
2023/03/07 00:56:32;;;;;;;13.77;5.85;;;0.00;93.50;;;;;;2077870;28;20930;-71
2023/03/07 00:57:38;;;;;;;9.77;5.35;;;0.00;93.70;;;;;;2085072;28;20177;-70
2023/03/07 00:58:44;;;;;;;11.65;5.72;;;0.00;93.70;;;;;;2081367;28;20172;-70
2023/03/07 00:59:50;;;;;;;8.40;5.30;;;0.10;93.50;;;;;;2075366;28;20181;-71
2023/03/07 01:00:56;;;;;;;11.50;5.55;;;0.10;93.50;;;;;;2078075;28;20241;-70
2023/03/07 01:02:02;;;;;;;10.15;5.80;;;0.10;93.60;;;;;;2076481;28;20217;-74
2023/03/07 01:03:04;;;;;;;14.00;6.75;;;0.10;93.50;;;;;;2064585;28;20182;-70
2023/03/07 01:04:10;;;;;;;9.52;5.43;;;0.10;93.40;;;;;;2069089;28;20192;-70
2023/03/07 01:05:15;;;;;;;13.27;5.45;;;0.10;93.30;;;;;;2072883;28;20193;-70
2023/03/07 01:06:27;;;;;;;9.27;5.40;;;0.10;93.40;;;;;;2078337;28;20237;-69
2023/03/07 01:07:34;;;;;;;9.95;5.20;;;0.10;93.40;;;;;;2073014;28;20181;-69
2023/03/07 01:08:40;;;;;;;9.25;5.63;;;0.10;93.30;;;;;;2077673;28;20256;-69
2023/03/07 01:09:50;;;;;;;10.73;5.93;;;0.10;93.30;;;;;;2061157;28;20257;-69
2023/03/07 01:11:02;;;;;;;7.97;4.57;;;0.10;93.30;;;;;;2075085;28;20189;-71
2023/03/07 01:12:06;;;;;;;9.60;5.53;;;0.10;93.10;;;;;;2076248;28;20215;-71
2023/03/07 01:13:11;;;;;;;9.20;5.13;;;0.10;93.40;;;;;;2068752;28;20210;-70
2023/03/07 01:14:16;;;;;;;9.70;5.55;;;0.00;94.00;;;;;;2073412;28;20188;-70
2023/03/07 01:15:22;;;;;;;9.23;5.03;;;-0.10;93.20;;;;;;2080659;28;20283;-70
2023/03/07 01:16:31;;;;;;;10.63;5.45;;;0.00;93.40;;;;;;2072398;28;20236;-69
2023/03/07 01:17:34;;;;;;;9.40;4.60;;;-0.10;93.40;;;;;;2061433;28;20214;-70
2023/03/07 01:18:40;;;;;;;11.27;5.28;;;-0.10;93.20;;;;;;2058314;28;20261;-69
2023/03/07 01:19:45;;;;;;;9.02;4.85;;;-0.10;93.30;;;;;;2076608;28;20192;-69
2023/03/07 01:20:51;;;;;;;10.93;5.60;;;0.00;93.20;;;;;;2065597;28;20184;-69
2023/03/07 01:21:56;;;;;;;9.82;5.45;;;0.00;93.00;;;;;;2075395;28;20233;-70
2023/03/07 01:23:02;;;;;;;11.63;5.78;;;0.00;92.90;;;;;;2081444;28;20216;-70
2023/03/07 01:24:07;;;;;;;8.68;4.78;;;0.00;92.80;;;;;;2068460;28;20667;-70
2023/03/07 01:25:10;;;;;;;7.45;4.90;;;0.00;92.70;;;;;;2068390;28;20190;-69
2023/03/07 01:26:23;;;;;;;11.27;5.32;;;0.00;92.70;;;;;;2073667;28;20262;-70
2023/03/07 01:27:27;;;;;;;9.90;5.22;;;0.10;92.80;;;;;;2055365;28;20183;-70
2023/03/07 01:28:33;;;;;;;9.38;5.47;;;0.20;92.50;;;;;;2079049;28;21016;-70
2023/03/07 01:29:38;;;;;;;8.73;4.45;;;0.10;92.50;;;;;;2078213;28;20311;-70
2023/03/07 01:30:44;;;;;;;9.18;5.30;;;0.20;92.60;;;;;;2078178;28;20262;-71
2023/03/07 01:31:49;;;;;;;7.68;4.60;;;0.10;92.50;;;;;;2076451;28;20196;-71
2023/03/07 01:32:56;;;;;;;9.85;4.55;;;0.10;92.60;;;;;;2077888;28;20210;-71
2023/03/07 01:34:00;;;;;;;8.48;4.97;;;0.10;92.60;;;;;;2078347;28;20181;-71
2023/03/07 01:35:05;;;;;;;8.85;4.70;;;0.00;92.70;;;;;;2086818;28;20181;-71
2023/03/07 01:36:20;;;;;;;9.50;4.93;;;0.00;92.90;;;;;;2078007;28;20191;-70
2023/03/07 01:37:26;;;;;;;9.52;5.00;;;0.00;92.80;;;;;;2069726;28;20188;-70
2023/03/07 01:38:33;;;;;;;10.30;5.65;;;-0.10;92.80;;;;;;2071394;28;20186;-70
2023/03/07 01:39:38;;;;;;;9.18;5.40;;;0.00;92.80;;;;;;2070000;28;20572;-71
2023/03/07 01:40:44;;;;;;;9.52;4.85;;;0.00;92.90;;;;;;2058996;28;20202;-70
2023/03/07 01:41:49;;;;;;;10.73;5.03;;;0.00;92.80;;;;;;2070502;28;20202;-70
2023/03/07 01:43:32;;;;;;;8.93;4.72;;;0.00;92.70;;;;;;2058942;28;20208;-70
2023/03/07 01:45:26;;;;;;;11.45;4.75;;;-0.10;92.90;;;;;;2064089;28;20571;-70
2023/03/07 01:46:46;;;;;;;9.32;5.07;;;-0.10;93.10;;;;;;2083291;28;20204;-71
2023/03/07 01:47:52;;;;;;;8.38;4.47;;;-0.20;93.40;;;;;;2074519;28;20185;-71
2023/03/07 01:49:06;;;;;;;9.35;4.90;;;-0.20;93.30;;;;;;2079319;28;20184;-71
2023/03/07 01:50:14;;;;;;;11.55;5.22;;;-0.10;93.30;;;;;;2070080;28;20182;-69
2023/03/07 01:51:20;;;;;;;8.55;4.90;;;-0.10;93.30;;;;;;2066277;28;20190;-69
2023/03/07 01:52:56;;;;;;;11.88;5.63;;;-0.20;93.50;;;;;;2071372;28;20607;-70
2023/03/07 01:54:05;;;;;;;9.00;4.93;;;-0.10;93.40;;;;;;2074235;28;20601;-69
2023/03/07 01:55:21;;;;;;;9.38;5.07;;;-0.10;93.30;;;;;;2069294;28;20186;-71
2023/03/07 01:56:27;;;;;;;9.05;5.35;;;0.00;93.20;;;;;;2071771;28;20181;-71
2023/03/07 01:57:37;;;;;;;8.40;5.10;;;0.00;93.00;;;;;;2074170;28;20550;-70
2023/03/07 01:58:43;;;;;;;9.18;5.00;;;0.00;92.80;;;;;;2077785;28;20235;-72
2023/03/07 01:59:54;;;;;;;8.50;4.90;;;0.00;92.80;;;;;;2079161;28;20616;-71
2023/03/07 02:00:55;;;;;;;9.20;4.70;;;-0.10;93.00;;;;;;2074218;28;20200;-71
2023/03/07 02:02:07;;;;;;;8.80;5.70;;;-0.10;92.90;;;;;;2078575;28;20213;-70
2023/03/07 02:03:09;;;;;;;10.98;5.35;;;-0.10;93.00;;;;;;2069607;28;20678;-71
2023/03/07 02:04:23;;;;;;;10.27;4.88;;;-0.10;93.10;;;;;;2071085;28;20300;-71
2023/03/07 02:05:34;;;;;;;9.75;5.47;;;0.00;92.70;;;;;;2075492;28;20181;-73
2023/03/07 02:06:38;;;;;;;8.65;5.00;;;0.00;92.70;;;;;;2069548;28;20217;-71
2023/03/07 02:07:48;;;;;;;9.07;4.47;;;0.00;92.30;;;;;;2068443;28;20177;-70
2023/03/07 02:08:53;;;;;;;9.80;4.80;;;0.40;92.20;;;;;;2077554;28;20226;-72
2023/03/07 02:09:58;;;;;;;10.13;5.32;;;0.10;92.10;;;;;;2070469;28;20190;-71
2023/03/07 02:11:02;;;;;;;8.35;4.72;;;0.10;92.10;;;;;;2070616;28;20182;-71
2023/03/07 02:12:05;;;;;;;8.32;5.07;;;0.10;91.90;;;;;;2074248;28;20201;-71
2023/03/07 02:13:09;;;;;;;8.82;5.40;;;0.20;91.50;;;;;;2077772;28;20279;-71
2023/03/07 02:14:15;;;;;;;11.82;5.90;;;0.20;91.60;;;;;;2077638;28;20184;-71
2023/03/07 02:15:21;;;;;;;8.35;4.88;;;0.20;91.80;;;;;;2083977;28;20202;-69
2023/03/07 02:16:26;;;;;;;9.88;4.75;;;0.20;91.80;;;;;;2074300;28;20253;-72
2023/03/07 02:17:31;;;;;;;13.40;5.75;;;0.10;91.60;;;;;;2072982;28;20698;-71
2023/03/07 02:18:47;;;;;;;8.35;5.10;;;0.20;91.70;;;;;;2087133;28;20216;-71
2023/03/07 02:20:55;;;;;;;8.68;4.60;;;0.10;91.80;;;;;;2064978;28;20213;-70
2023/03/07 02:22:15;;;;;;;9.40;4.57;;;0.10;91.80;;;;;;2064943;28;20259;-71
2023/03/07 02:23:57;;;;;;;9.15;5.32;;;0.00;91.90;;;;;;2070247;28;20197;-71
2023/03/07 02:25:40;;;;;;;9.02;4.82;;;0.00;92.20;;;;;;2084031;28;20217;-71
2023/03/07 02:26:48;;;;;;;8.82;4.93;;;0.00;92.40;;;;;;2076336;28;20573;-72
2023/03/07 02:27:56;;;;;;;8.38;4.78;;;0.00;92.50;;;;;;2085959;28;20176;-72
2023/03/07 02:29:01;;;;;;;9.75;5.07;;;0.00;92.20;;;;;;2069763;28;20190;-71
2023/03/07 02:30:07;;;;;;;10.23;5.13;;;0.00;92.60;;;;;;2063704;28;20209;-70
2023/03/07 02:31:10;;;;;;;11.23;5.50;;;0.10;92.00;;;;;;2062349;28;20752;-71
2023/03/07 02:32:16;;;;;;;11.18;5.57;;;0.10;92.00;;;;;;2070771;28;20889;-70
2023/03/07 02:33:24;;;;;;;8.32;5.00;;;0.10;91.70;;;;;;2070351;28;20189;-71
2023/03/07 02:34:30;;;;;;;8.70;5.13;;;0.10;92.00;;;;;;2067792;28;20189;-70
2023/03/07 02:35:35;;;;;;;9.40;5.10;;;0.00;92.30;;;;;;2077768;28;20186;-70
2023/03/07 02:36:40;;;;;;;11.75;6.00;;;0.00;92.40;;;;;;2061485;28;20220;-70
2023/03/07 02:37:51;;;;;;;10.80;5.20;;;-0.10;92.60;;;;;;2066009;28;20273;-70
2023/03/07 02:38:55;;;;;;;12.40;5.22;;;0.00;92.60;;;;;;2077674;28;20182;-70
2023/03/07 02:40:05;;;;;;;9.27;5.20;;;0.10;91.90;;;;;;2070097;28;20205;-69
2023/03/07 02:41:11;;;;;;;17.63;6.85;;;0.10;92.00;;;;;;2069690;28;20189;-70
2023/03/07 02:42:22;;;;;;;9.07;4.85;;;0.20;91.90;;;;;;2064161;28;20687;-71
2023/03/07 02:43:28;;;;;;;10.20;5.22;;;0.20;91.60;;;;;;2057391;28;20281;-70
2023/03/07 02:44:33;;;;;;;13.77;5.70;;;0.30;91.30;;;;;;2057074;28;20550;-70
2023/03/07 02:45:39;;;;;;;12.07;5.55;;;0.30;90.90;;;;;;2064312;28;20289;-70
2023/03/07 02:46:45;;;;;;;9.77;5.15;;;0.30;90.80;;;;;;2070390;28;20689;-71
2023/03/07 02:47:51;;;;;;;11.70;5.38;;;0.30;90.70;;;;;;2070650;28;20201;-71
2023/03/07 02:48:56;;;;;;;8.85;4.80;;;0.30;90.60;;;;;;2078429;28;20193;-70
2023/03/07 02:50:04;;;;;;;11.82;5.65;;;0.40;90.80;;;;;;2077398;28;20329;-70
2023/03/07 02:51:10;;;;;;;11.85;5.00;;;0.30;90.80;;;;;;2078774;28;20216;-71
2023/03/07 02:52:16;;;;;;;12.35;6.03;;;0.40;90.80;;;;;;2087688;28;20742;-70
2023/03/07 02:53:22;;;;;;;8.55;4.90;;;0.40;90.40;;;;;;2073892;28;20189;-71
2023/03/07 02:54:28;;;;;;;8.95;5.00;;;0.30;90.60;;;;;;2065250;28;20641;-71
2023/03/07 02:55:34;;;;;;;10.32;5.45;;;0.30;90.40;;;;;;2073381;28;20199;-73
2023/03/07 02:56:40;;;;;;;8.40;4.82;;;0.30;90.20;;;;;;2077095;28;20192;-71
2023/03/07 02:57:46;;;;;;;10.40;5.18;;;0.40;90.10;;;;;;2082621;28;20250;-70
2023/03/07 02:58:52;;;;;;;6.60;4.10;;;0.40;90.60;;;;;;2085785;28;20187;-70
2023/03/07 02:59:58;;;;;;;10.00;4.85;;;0.40;91.30;;;;;;2068858;28;20690;-70
2023/03/07 03:01:05;;;;;;;9.73;5.00;;;0.20;91.90;;;;;;2061275;28;20209;-71
2023/03/07 03:02:10;;;;;;;10.05;4.70;;;0.10;92.30;;;;;;2054968;28;20193;-70
2023/03/07 03:03:15;;;;;;;8.13;4.75;;;0.10;92.60;;;;;;2062461;28;20190;-70
2023/03/07 03:04:21;;;;;;;9.07;5.03;;;0.10;92.50;;;;;;2077448;28;20313;-70
2023/03/07 03:05:27;;;;;;;9.27;4.85;;;0.10;92.30;;;;;;2069230;28;20183;-70
2023/03/07 03:06:33;;;;;;;9.85;4.70;;;0.20;92.00;;;;;;2063071;28;20199;-71
2023/03/07 03:07:38;;;;;;;10.15;5.22;;;0.20;91.90;;;;;;2078833;28;20189;-72
2023/03/07 03:08:44;;;;;;;9.13;4.68;;;0.20;91.90;;;;;;2077419;28;20173;-70
2023/03/07 03:09:50;;;;;;;9.40;5.10;;;0.20;91.90;;;;;;2078804;28;20196;-70
2023/03/07 03:10:55;;;;;;;7.78;5.00;;;0.20;92.00;;;;;;2077145;28;20188;-70
2023/03/07 03:12:01;;;;;;;8.38;4.60;;;0.10;91.90;;;;;;2062398;28;20299;-70
2023/03/07 03:13:04;;;;;;;8.27;4.53;;;0.10;92.00;;;;;;2069367;28;20279;-70
2023/03/07 03:14:09;;;;;;;8.50;4.25;;;0.10;92.30;;;;;;2076970;28;20674;-70
2023/03/07 03:15:15;;;;;;;11.98;5.00;;;0.10;92.20;;;;;;2066122;28;20197;-70
2023/03/07 03:16:21;;;;;;;8.90;4.57;;;0.10;91.90;;;;;;2078833;28;20180;-70
2023/03/07 03:17:26;;;;;;;10.50;5.20;;;-0.10;91.80;;;;;;2077096;28;20194;-70
2023/03/07 03:18:32;;;;;;;7.80;4.22;;;0.10;92.00;;;;;;2062144;28;20288;-69
2023/03/07 03:19:38;;;;;;;9.98;5.55;;;0.10;92.00;;;;;;2072188;28;20639;-70
2023/03/07 03:20:44;;;;;;;8.73;5.15;;;0.00;92.20;;;;;;2077538;28;20208;-70
2023/03/07 03:21:49;;;;;;;8.07;5.10;;;0.00;92.40;;;;;;2070614;28;20202;-70
2023/03/07 03:22:55;;;;;;;8.02;4.40;;;0.00;93.30;;;;;;2078642;28;20649;-70
2023/03/07 03:24:06;;;;;;;10.90;4.78;;;-0.20;92.50;;;;;;2082721;28;20184;-70
2023/03/07 03:25:12;;;;;;;7.18;4.10;;;-0.30;92.30;;;;;;2068971;28;20623;-70
2023/03/07 03:26:18;;;;;;;8.98;5.05;;;-0.20;92.80;;;;;;2063658;28;20195;-70
2023/03/07 03:27:24;;;;;;;7.45;4.03;;;-0.20;92.20;;;;;;2075351;28;20572;-70
2023/03/07 03:28:30;;;;;;;8.88;5.15;;;-0.20;92.20;;;;;;2081879;28;20189;-70
2023/03/07 03:29:36;;;;;;;8.43;4.78;;;-0.20;92.30;;;;;;2090042;28;20255;-70
2023/03/07 03:30:42;;;;;;;10.88;4.90;;;-0.20;92.20;;;;;;2086494;28;20671;-70
2023/03/07 03:31:48;;;;;;;8.20;4.50;;;-0.20;92.40;;;;;;2082665;28;20212;-69
2023/03/07 03:32:55;;;;;;;8.50;4.47;;;-0.20;92.30;;;;;;2085867;28;20841;-70
2023/03/07 03:34:01;;;;;;;8.57;4.47;;;-0.10;92.20;;;;;;2077243;28;20642;-70
2023/03/07 03:35:06;;;;;;;8.85;4.60;;;-0.10;91.80;;;;;;2069921;28;20182;-70
2023/03/07 03:36:14;;;;;;;8.65;4.57;;;0.00;91.60;;;;;;2066187;28;20185;-70
2023/03/07 03:37:19;;;;;;;9.10;4.85;;;0.00;91.40;;;;;;2066492;28;20193;-70
2023/03/07 03:38:26;;;;;;;10.02;5.28;;;0.00;91.30;;;;;;2061215;28;20183;-69
2023/03/07 03:39:32;;;;;;;8.75;4.53;;;0.10;91.40;;;;;;2074301;28;20270;-70
2023/03/07 03:40:37;;;;;;;10.60;4.75;;;0.00;91.50;;;;;;2086149;28;20188;-70
2023/03/07 03:41:43;;;;;;;9.10;4.93;;;-0.10;91.40;;;;;;2085840;28;20208;-69
2023/03/07 03:42:49;;;;;;;8.75;4.75;;;-0.10;91.70;;;;;;2068953;28;20181;-70
2023/03/07 03:43:56;;;;;;;10.82;5.25;;;-0.10;91.70;;;;;;2071946;28;20181;-71
2023/03/07 03:45:02;;;;;;;8.38;4.80;;;-0.10;92.10;;;;;;2084098;28;20188;-70
2023/03/07 03:46:05;;;;;;;9.98;4.97;;;-0.30;92.10;;;;;;2077230;28;20272;-71
2023/03/07 03:47:09;;;;;;;10.25;5.60;;;-0.30;92.20;;;;;;2077940;28;20184;-70
2023/03/07 03:48:15;;;;;;;11.45;5.00;;;-0.30;92.20;;;;;;2082023;28;20666;-71
2023/03/07 03:49:21;;;;;;;8.43;4.55;;;-0.30;92.10;;;;;;2085774;28;20181;-72
2023/03/07 03:50:26;;;;;;;9.52;4.95;;;-0.30;92.50;;;;;;2085778;28;20190;-70
2023/03/07 03:51:32;;;;;;;9.93;5.47;;;-0.40;92.50;;;;;;2068716;28;20377;-69
2023/03/07 03:52:38;;;;;;;7.93;4.13;;;-0.30;92.40;;;;;;2066518;28;20904;-72
2023/03/07 03:53:43;;;;;;;7.93;4.30;;;-0.30;92.40;;;;;;2077567;28;20177;-71
2023/03/07 03:54:49;;;;;;;11.23;5.57;;;-0.40;92.40;;;;;;2085817;28;20180;-71
2023/03/07 03:56:08;;;;;;;8.13;4.78;;;-0.30;92.30;;;;;;2085726;28;20664;-71
2023/03/07 03:57:11;;;;;;;8.20;4.28;;;-0.20;92.10;;;;;;2083398;28;20710;-71
2023/03/07 03:58:17;;;;;;;10.75;5.00;;;-0.30;92.10;;;;;;2068181;28;20674;-71
2023/03/07 03:59:22;;;;;;;10.48;4.97;;;-0.30;92.10;;;;;;2073379;28;20181;-71
2023/03/07 04:00:29;;;;;;;8.95;4.75;;;-0.30;92.10;;;;;;2086115;28;20227;-70
2023/03/07 04:01:35;;;;;;;9.00;4.68;;;-0.20;92.20;;;;;;2077007;28;20336;-71
2023/03/07 04:02:40;;;;;;;8.27;4.70;;;-0.30;92.20;;;;;;2070675;28;20559;-71
2023/03/07 04:03:50;;;;;;;9.68;5.15;;;-0.20;92.30;;;;;;2081771;28;20211;-71
2023/03/07 04:04:55;;;;;;;10.50;5.38;;;-0.30;92.20;;;;;;2085735;28;20220;-71
2023/03/07 04:06:14;;;;;;;8.02;4.18;;;-0.20;92.20;;;;;;2085806;28;20195;-71
2023/03/07 04:07:21;;;;;;;9.52;4.55;;;-0.30;92.40;;;;;;2074404;28;20181;-71
2023/03/07 04:08:26;;;;;;;7.75;4.57;;;-0.40;92.60;;;;;;2078323;28;20287;-73
2023/03/07 04:09:32;;;;;;;7.95;4.32;;;-0.50;93.00;;;;;;2064760;28;20228;-70
2023/03/07 04:10:38;;;;;;;8.88;4.88;;;-0.50;93.00;;;;;;2060597;28;20690;-71
2023/03/07 04:11:43;;;;;;;9.10;4.82;;;-0.50;93.00;;;;;;2070310;28;20210;-70
2023/03/07 04:12:49;;;;;;;10.15;4.97;;;-0.50;92.90;;;;;;2072550;28;20585;-70
2023/03/07 04:13:54;;;;;;;9.25;5.00;;;-0.40;93.10;;;;;;2088819;28;20256;-71
2023/03/07 04:15:00;;;;;;;6.95;4.57;;;-0.50;93.50;;;;;;2073327;28;20172;-70
2023/03/07 04:16:05;;;;;;;7.93;4.82;;;-0.50;93.70;;;;;;2085257;28;20186;-71
2023/03/07 04:17:09;;;;;;;9.15;4.65;;;-0.70;94.10;;;;;;2078198;28;20296;-70
2023/03/07 04:18:15;;;;;;;8.68;4.53;;;-0.80;94.50;;;;;;2077104;28;20211;-71
2023/03/07 04:19:20;;;;;;;9.13;4.75;;;-0.90;94.90;;;;;;2066655;28;20718;-71
2023/03/07 04:20:26;;;;;;;9.55;5.00;;;-0.90;94.90;;;;;;2077884;28;20185;-70
2023/03/07 04:21:31;;;;;;;9.75;4.65;;;-0.80;95.10;;;;;;2085582;28;20204;-70
2023/03/07 04:22:37;;;;;;;8.50;4.55;;;-0.80;95.00;;;;;;2085854;28;20188;-72
2023/03/07 04:23:42;;;;;;;9.85;4.70;;;-0.80;95.20;;;;;;2081992;28;20179;-72
2023/03/07 04:24:47;;;;;;;8.93;4.93;;;-0.80;95.20;;;;;;2085632;28;20191;-71
2023/03/07 04:25:59;;;;;;;11.18;5.35;;;-0.80;95.10;;;;;;2068987;28;20189;-70
2023/03/07 04:27:02;;;;;;;8.40;5.03;;;-0.80;95.00;;;;;;2062171;28;20214;-71
2023/03/07 04:28:04;;;;;;;14.57;9.43;;;-0.90;95.00;;;;;;2073424;28;20181;-71
2023/03/07 04:29:12;;;;;;;9.93;5.90;;;-0.90;95.50;;;;;;2084830;28;20180;-71
2023/03/07 04:30:15;;;;;;;9.88;5.72;;;-1.00;95.90;;;;;;2076687;28;20200;-71
2023/03/07 04:31:24;;;;;;;10.15;5.85;;;-1.10;96.30;;;;;;2076746;28;20221;-71
2023/03/07 04:32:27;;;;;;;9.88;4.78;;;-1.00;96.70;;;;;;2066253;28;20212;-71
2023/03/07 04:33:32;;;;;;;9.20;5.60;;;-1.00;96.40;;;;;;2068603;28;20204;-70
2023/03/07 04:34:37;;;;;;;9.63;5.75;;;-1.00;96.50;;;;;;2070655;28;20204;-70
2023/03/07 04:35:44;;;;;;;15.02;7.95;;;-0.90;97.00;;;;;;2076691;28;20244;-71
2023/03/07 04:36:50;;;;;;;9.57;5.55;;;-0.90;96.20;;;;;;2061903;28;20182;-70
2023/03/07 04:37:55;;;;;;;14.30;6.20;;;-0.80;96.00;;;;;;2061982;28;20275;-70
2023/03/07 04:39:01;;;;;;;12.70;5.28;;;-0.80;95.80;;;;;;2078242;28;20233;-70
2023/03/07 04:40:05;;;;;;;11.10;5.68;;;-0.80;95.70;;;;;;2068575;28;20742;-70
2023/03/07 04:41:18;;;;;;;9.82;5.82;;;-0.70;95.60;;;;;;2069037;28;20197;-69
2023/03/07 04:42:23;;;;;;;10.43;5.10;;;-0.70;95.80;;;;;;2070576;28;20177;-69
2023/03/07 04:43:29;;;;;;;10.95;5.82;;;-0.80;96.00;;;;;;2077689;28;20588;-70
2023/03/07 04:44:34;;;;;;;10.95;5.28;;;-0.70;96.10;;;;;;2081203;28;20176;-70
2023/03/07 04:45:40;;;;;;;11.45;6.03;;;-0.70;96.00;;;;;;2085009;28;20183;-71
2023/03/07 04:46:41;;;;;;;10.55;5.63;;;-0.80;95.90;;;;;;2077110;28;20733;-70
2023/03/07 04:47:47;;;;;;;9.93;5.25;;;-0.80;96.20;;;;;;2084811;28;20184;-70
2023/03/07 04:48:52;;;;;;;11.63;6.13;;;-0.80;96.50;;;;;;2075690;28;20239;-70
2023/03/07 04:49:58;;;;;;;9.77;5.25;;;-0.80;96.80;;;;;;2073383;28;20180;-70
2023/03/07 04:51:04;;;;;;;10.35;5.38;;;-0.80;96.90;;;;;;2085012;28;20180;-70
2023/03/07 04:52:05;;;;;;;12.15;5.85;;;-0.70;97.20;;;;;;2075932;28;20656;-71
2023/03/07 04:53:09;;;;;;;11.52;4.80;;;-0.80;97.30;;;;;;2068820;28;20603;-70
2023/03/07 04:54:15;;;;;;;10.38;5.32;;;-0.70;97.40;;;;;;2076347;28;20359;-70
2023/03/07 04:55:20;;;;;;;9.90;5.80;;;-0.70;97.30;;;;;;2076271;28;20188;-70
2023/03/07 04:56:26;;;;;;;11.98;5.95;;;-0.70;97.40;;;;;;2076962;28;20303;-70
2023/03/07 04:57:31;;;;;;;10.45;5.47;;;-0.70;97.30;;;;;;2076352;28;20191;-70
2023/03/07 04:58:37;;;;;;;9.25;4.88;;;-0.60;97.40;;;;;;2077752;28;20185;-70
2023/03/07 04:59:42;;;;;;;11.05;6.35;;;-0.70;97.30;;;;;;2081696;28;20207;-70
2023/03/07 05:00:48;;;;;;;10.85;5.85;;;-0.70;97.50;;;;;;2084639;28;20180;-69
2023/03/07 05:01:53;;;;;;;12.02;6.13;;;-0.70;97.40;;;;;;2084729;28;20212;-70
2023/03/07 05:03:00;;;;;;;10.45;5.60;;;-0.70;97.30;;;;;;2084288;28;20190;-70
2023/03/07 05:04:04;;;;;;;11.02;5.32;;;-0.70;97.50;;;;;;2081009;28;20207;-70
2023/03/07 05:05:09;;;;;;;10.52;5.28;;;-0.70;97.30;;;;;;2084865;28;20206;-70
2023/03/07 05:06:15;;;;;;;8.57;4.88;;;-0.60;96.90;;;;;;2075975;28;20708;-71
2023/03/07 05:07:20;;;;;;;8.82;5.38;;;-0.60;96.70;;;;;;2077282;28;20233;-70
2023/03/07 05:08:26;;;;;;;8.93;5.28;;;-0.70;96.80;;;;;;2081318;28;20195;-71
2023/03/07 05:09:31;;;;;;;11.23;5.53;;;-0.60;97.00;;;;;;2076060;28;20188;-70
2023/03/07 05:10:37;;;;;;;10.88;5.68;;;-0.70;97.00;;;;;;2077323;28;20186;-70
2023/03/07 05:11:42;;;;;;;9.75;5.43;;;-0.70;97.10;;;;;;2060000;28;20861;-70
2023/03/07 05:12:47;;;;;;;10.68;4.88;;;-0.60;97.00;;;;;;2063244;28;20218;-70
2023/03/07 05:13:53;;;;;;;8.98;5.00;;;-0.60;96.80;;;;;;2088343;28;20179;-70
2023/03/07 05:14:59;;;;;;;10.05;4.75;;;-0.60;96.60;;;;;;2085597;28;20267;-70
2023/03/07 05:16:05;;;;;;;8.13;5.00;;;-0.70;96.60;;;;;;2076060;28;20216;-71
2023/03/07 05:17:09;;;;;;;9.05;5.10;;;-0.70;96.70;;;;;;2072363;28;20610;-70
2023/03/07 05:18:15;;;;;;;9.05;5.40;;;-0.70;96.80;;;;;;2068830;28;20197;-70
2023/03/07 05:19:20;;;;;;;10.00;5.15;;;-0.70;97.00;;;;;;2067633;28;20181;-70
2023/03/07 05:20:28;;;;;;;8.82;4.88;;;-0.70;97.10;;;;;;2068683;28;20695;-71
2023/03/07 05:21:31;;;;;;;7.60;4.57;;;-0.70;97.00;;;;;;2069002;28;20256;-70
2023/03/07 05:22:37;;;;;;;8.07;4.60;;;-0.60;96.70;;;;;;2069038;28;20225;-69
2023/03/07 05:23:43;;;;;;;8.35;4.68;;;-0.60;96.60;;;;;;2075936;28;20212;-69
2023/03/07 05:24:48;;;;;;;9.50;5.50;;;-0.70;96.60;;;;;;2061129;28;20737;-71
2023/03/07 05:25:53;;;;;;;9.20;5.10;;;-0.70;96.60;;;;;;2062085;28;20655;-70
2023/03/07 05:26:59;;;;;;;8.93;5.70;;;-0.70;96.60;;;;;;2069331;28;20186;-70
2023/03/07 05:28:04;;;;;;;10.32;5.32;;;-0.70;96.70;;;;;;2076972;28;20190;-70
2023/03/07 05:29:09;;;;;;;11.52;5.65;;;-0.70;96.70;;;;;;2078800;28;20250;-70
2023/03/07 05:30:15;;;;;;;8.25;4.90;;;-0.80;96.70;;;;;;2072349;28;20252;-70
2023/03/07 05:31:21;;;;;;;12.02;5.80;;;-0.80;97.00;;;;;;2074650;28;20185;-70
2023/03/07 05:32:26;;;;;;;11.95;5.93;;;-0.70;96.90;;;;;;2079109;28;20197;-70
2023/03/07 05:33:32;;;;;;;10.30;4.95;;;-0.70;96.70;;;;;;2070743;28;20710;-70
2023/03/07 05:34:37;;;;;;;10.07;5.53;;;-0.70;96.70;;;;;;2073511;28;20184;-70
2023/03/07 05:35:43;;;;;;;11.65;5.60;;;-0.70;96.80;;;;;;2075809;28;20197;-70
2023/03/07 05:36:48;;;;;;;9.48;5.28;;;-0.70;96.80;;;;;;2069382;28;20241;-71
2023/03/07 05:37:53;;;;;;;11.95;5.45;;;-0.70;96.80;;;;;;2059920;28;20189;-70
2023/03/07 05:38:59;;;;;;;10.63;5.60;;;-0.70;96.70;;;;;;2062197;28;20210;-70
2023/03/07 05:40:08;;;;;;;14.77;6.40;;;-0.70;96.60;;;;;;2076156;28;20177;-71
2023/03/07 05:41:09;;;;;;;17.38;6.75;;;-0.60;96.50;;;;;;2067980;28;20197;-70
2023/03/07 05:42:15;;;;;;;9.80;5.30;;;-0.60;96.40;;;;;;2068497;28;20174;-70
2023/03/07 05:43:21;;;;;;;10.73;5.38;;;-0.60;96.50;;;;;;2074652;28;20180;-70
2023/03/07 05:44:26;;;;;;;9.45;5.05;;;-0.70;96.40;;;;;;2068858;28;20190;-70
2023/03/07 05:45:32;;;;;;;11.90;6.50;;;-0.70;96.50;;;;;;2081186;28;20177;-69
2023/03/07 05:46:37;;;;;;;13.32;6.43;;;-0.60;96.50;;;;;;2076206;28;20196;-69
2023/03/07 05:47:43;;;;;;;10.13;5.45;;;-0.60;96.40;;;;;;2073028;28;20713;-69
2023/03/07 05:48:48;;;;;;;11.93;5.95;;;-0.70;96.40;;;;;;2076164;28;20221;-69